Time;durP1;ratioP1;P1;durP2;ratioP2;P2;SDS_P1;SDS_P2;PMS_P1;PMS_P2;Temp;Humidity;BMP_temperature;BMP_pressure;BME280_temperature;BME280_humidity;BME280_pressure;Samples;Min_cycle;Max_cycle;Signal;HPM_P1;HPM_P2
2023/05/09 00:00:22;;;;;;;45.20;33.28;;;;;;;14.08;100.00;101688.97;5029201;28;20040;-76
2023/05/09 00:02:47;;;;;;;40.38;31.52;;;;;;;14.04;100.00;101680.44;5027075;28;20087;-76
2023/05/09 00:05:13;;;;;;;41.97;30.95;;;;;;;14.06;100.00;101682.94;5029139;28;20481;-76
2023/05/09 00:07:39;;;;;;;39.55;30.25;;;;;;;14.06;100.00;101678.50;5033685;28;20473;-76
2023/05/09 00:10:05;;;;;;;41.05;30.55;;;;;;;14.05;100.00;101673.31;5022538;28;20029;-76
2023/05/09 00:12:30;;;;;;;36.70;29.08;;;;;;;14.03;100.00;101680.53;5026935;28;20025;-76
2023/05/09 00:14:56;;;;;;;35.67;27.33;;;;;;;14.03;100.00;101675.25;5028353;28;20029;-76
2023/05/09 00:17:25;;;;;;;34.95;27.92;;;;;;;13.97;100.00;101675.69;5026512;28;20477;-76
2023/05/09 00:19:51;;;;;;;36.22;28.05;;;;;;;13.95;100.00;101672.31;5028687;28;20048;-76
2023/05/09 00:22:20;;;;;;;36.78;27.55;;;;;;;13.97;100.00;101665.09;5028573;28;20363;-76
2023/05/09 00:24:46;;;;;;;33.70;27.13;;;;;;;13.98;100.00;101659.69;5027654;28;20151;-76
2023/05/09 00:27:11;;;;;;;33.88;26.45;;;;;;;13.99;100.00;101663.19;5022070;28;20112;-76
2023/05/09 00:29:36;;;;;;;33.53;26.15;;;;;;;13.99;100.00;101663.19;5027978;28;20521;-76
2023/05/09 00:32:05;;;;;;;32.75;26.88;;;;;;;13.96;100.00;101660.75;5028840;28;20436;-77
2023/05/09 00:34:30;;;;;;;32.78;25.27;;;;;;;13.97;100.00;101649.22;5029742;28;20029;-76
2023/05/09 00:36:56;;;;;;;32.65;26.23;;;;;;;13.97;100.00;101649.22;5029357;28;20107;-76
2023/05/09 00:39:21;;;;;;;28.80;24.30;;;;;;;13.94;100.00;101646.81;5029322;28;20104;-76
2023/05/09 00:41:48;;;;;;;30.58;24.38;;;;;;;13.96;100.00;101653.66;5023105;28;20045;-76
2023/05/09 00:44:14;;;;;;;30.35;24.58;;;;;;;13.97;100.00;101654.50;5025531;28;20381;-76
2023/05/09 00:46:39;;;;;;;29.13;23.02;;;;;;;13.96;100.00;101642.25;5033740;28;20037;-76
2023/05/09 00:49:06;;;;;;;32.05;24.63;;;;;;;13.94;100.00;101644.16;5032971;28;20109;-76
2023/05/09 00:51:32;;;;;;;28.08;23.00;;;;;;;13.98;100.00;101645.63;5032969;28;20393;-76
2023/05/09 00:53:58;;;;;;;25.05;22.13;;;;;;;13.97;100.00;101647.41;5033163;28;20039;-76
2023/05/09 00:56:24;;;;;;;29.20;23.00;;;;;;;13.92;100.00;101630.22;5047705;28;20044;-76
2023/05/09 00:58:49;;;;;;;27.63;22.48;;;;;;;13.99;100.00;101636.72;5032235;28;20021;-76
2023/05/09 01:01:15;;;;;;;28.83;22.13;;;;;;;13.98;100.00;101624.44;5030257;28;20393;-76
2023/05/09 01:03:42;;;;;;;30.70;21.70;;;;;;;13.93;100.00;101623.97;5029979;28;20037;-76
2023/05/09 01:06:38;;;;;;;25.33;21.80;;;;;;;13.96;100.00;101626.38;5031508;28;20107;-76
2023/05/09 01:09:23;;;;;;;24.88;20.15;;;;;;;13.93;100.00;101618.66;5049887;28;20021;-76
2023/05/09 01:12:02;;;;;;;27.77;21.13;;;;;;;13.91;100.00;101615.28;5043646;28;20037;-76
2023/05/09 01:15:13;;;;;;;28.52;21.35;;;;;;;13.94;100.00;101612.41;5029328;28;20138;-76
2023/05/09 01:17:47;;;;;;;25.55;20.50;;;;;;;13.86;100.00;101606.88;5025736;28;20032;-76
2023/05/09 01:20:20;;;;;;;25.80;20.67;;;;;;;13.91;100.00;101596.78;5032500;28;20055;-75
2023/05/09 01:22:50;;;;;;;26.90;21.65;;;;;;;13.85;100.00;101591.94;5030417;28;20041;-76
2023/05/09 01:25:19;;;;;;;26.63;21.02;;;;;;;13.88;100.00;101591.72;5032633;28;20083;-76
2023/05/09 01:27:57;;;;;;;25.00;20.17;;;;;;;13.90;100.00;101585.34;5052290;28;20020;-76
2023/05/09 01:30:24;;;;;;;28.25;19.95;;;;;;;13.89;100.00;101588.13;5039369;28;20041;-76
2023/05/09 01:32:51;;;;;;;22.30;19.63;;;;;;;13.91;100.00;101578.25;5031213;28;20045;-76
2023/05/09 01:35:18;;;;;;;25.40;20.52;;;;;;;13.85;100.00;101576.91;5023434;28;20394;-76
2023/05/09 01:37:47;;;;;;;26.70;20.08;;;;;;;13.87;100.00;101579.44;5032773;28;20025;-76
2023/05/09 01:40:15;;;;;;;27.27;21.17;;;;;;;13.89;100.00;101574.88;5031611;28;20477;-75
2023/05/09 01:43:01;;;;;;;24.33;20.58;;;;;;;13.90;100.00;101568.63;5026478;28;20407;-78
2023/05/09 01:45:28;;;;;;;28.02;21.27;;;;;;;13.84;100.00;101561.16;5024319;28;20040;-78
2023/05/09 01:47:56;;;;;;;27.30;20.42;;;;;;;13.83;100.00;101551.56;5031655;28;20041;-78
2023/05/09 01:50:22;;;;;;;27.90;21.35;;;;;;;13.79;100.00;101551.78;5032611;28;20024;-78
2023/05/09 01:52:52;;;;;;;27.15;21.10;;;;;;;13.78;100.00;101552.75;5023841;28;20057;-77
2023/05/09 01:55:20;;;;;;;24.08;20.98;;;;;;;13.80;100.00;101553.47;5010991;28;20425;-77
2023/05/09 01:57:46;;;;;;;26.08;20.98;;;;;;;13.79;100.00;101546.50;5012769;28;20032;-78
2023/05/09 02:00:13;;;;;;;28.77;20.67;;;;;;;13.75;100.00;101547.69;5028264;28;20041;-76
2023/05/09 02:02:40;;;;;;;24.85;20.45;;;;;;;13.75;100.00;101541.56;5032136;28;20067;-76
2023/05/09 02:05:11;;;;;;;27.70;20.90;;;;;;;13.76;100.00;101544.09;5029892;28;20109;-75
2023/05/09 02:07:38;;;;;;;28.67;21.25;;;;;;;13.74;100.00;101532.78;5036195;28;20086;-75
2023/05/09 02:10:07;;;;;;;23.75;19.45;;;;;;;13.74;100.00;101538.06;5032139;28;20478;-75
2023/05/09 02:12:33;;;;;;;24.65;20.67;;;;;;;13.73;100.00;101533.75;5031076;28;20382;-76
2023/05/09 02:14:58;;;;;;;26.58;20.55;;;;;;;13.72;100.00;101537.34;5030579;28;20029;-76
2023/05/09 02:17:24;;;;;;;28.00;21.23;;;;;;;13.73;100.00;101538.19;5030293;28;20029;-76
2023/05/09 02:19:49;;;;;;;24.00;19.95;;;;;;;13.70;100.00;101547.19;5027838;28;20033;-76
2023/05/09 02:22:19;;;;;;;25.88;20.65;;;;;;;13.67;100.00;101558.00;5029224;28;20032;-76
2023/05/09 02:24:44;;;;;;;25.40;21.00;;;;;;;13.66;100.00;101553.69;5031489;28;20100;-76
2023/05/09 02:27:12;;;;;;;27.42;21.35;;;;;;;13.65;100.00;101552.00;5019842;28;20219;-76
2023/05/09 02:29:48;;;;;;;25.83;21.20;;;;;;;13.65;100.00;101548.50;5014414;28;20029;-76
2023/05/09 02:32:15;;;;;;;28.80;21.27;;;;;;;13.58;100.00;101547.25;5030573;28;20025;-76
2023/05/09 02:34:42;;;;;;;26.67;20.58;;;;;;;13.57;100.00;101550.88;5029847;28;20104;-76
2023/05/09 02:37:09;;;;;;;28.95;22.17;;;;;;;13.52;100.00;101548.56;5030626;28;20390;-76
2023/05/09 02:39:35;;;;;;;28.23;21.25;;;;;;;13.52;100.00;101551.22;5029899;28;20102;-76
2023/05/09 02:42:05;;;;;;;30.58;21.48;;;;;;;13.52;100.00;101547.72;5029624;28;20053;-76
2023/05/09 02:44:31;;;;;;;29.10;21.60;;;;;;;13.51;100.00;101536.31;5023794;28;20022;-76
2023/05/09 02:46:57;;;;;;;26.88;21.45;;;;;;;13.49;100.00;101532.94;5010570;28;20153;-76
2023/05/09 02:49:22;;;;;;;30.15;21.10;;;;;;;13.49;100.00;101532.94;5020047;28;20489;-76
2023/05/09 02:51:47;;;;;;;27.08;20.50;;;;;;;13.46;100.00;101523.44;5031770;28;20436;-76
2023/05/09 02:54:14;;;;;;;27.02;20.80;;;;;;;13.43;100.00;101523.69;5031212;28;20482;-76
2023/05/09 02:56:40;;;;;;;25.88;20.75;;;;;;;13.46;100.00;101527.88;5030758;28;20025;-76
2023/05/09 02:59:06;;;;;;;29.63;21.90;;;;;;;13.44;100.00;101519.22;5031451;28;20600;-76
2023/05/09 03:01:31;;;;;;;28.35;21.55;;;;;;;13.45;100.00;101512.97;5026026;28;20025;-76
2023/05/09 03:03:56;;;;;;;29.13;22.23;;;;;;;13.42;100.00;101514.06;5028225;28;20037;-76
2023/05/09 03:06:23;;;;;;;28.05;21.60;;;;;;;13.40;100.00;101513.34;5029321;28;20552;-76
2023/05/09 03:08:49;;;;;;;26.98;21.10;;;;;;;13.42;100.00;101500.84;5029785;28;20241;-76
2023/05/09 03:11:14;;;;;;;31.05;22.30;;;;;;;13.41;100.00;101500.97;5044422;28;20021;-76
2023/05/09 03:13:40;;;;;;;28.58;21.73;;;;;;;13.39;100.00;101501.06;5030861;28;20037;-76
2023/05/09 03:16:06;;;;;;;29.63;22.52;;;;;;;13.44;100.00;101496.28;5027638;28;20017;-76
2023/05/09 03:18:31;;;;;;;27.95;22.42;;;;;;;13.40;100.00;101497.47;5015828;28;20026;-76
2023/05/09 03:20:56;;;;;;;27.42;22.40;;;;;;;13.42;100.00;101494.72;5010660;28;20041;-76
2023/05/09 03:23:26;;;;;;;29.45;22.95;;;;;;;13.40;100.00;101501.91;5009825;28;20033;-76
2023/05/09 03:25:52;;;;;;;28.33;21.77;;;;;;;13.38;100.00;101494.09;5034355;28;20396;-76
2023/05/09 03:28:17;;;;;;;30.90;22.50;;;;;;;13.38;100.00;101493.25;5041300;28;20021;-76
2023/05/09 03:30:42;;;;;;;28.42;22.67;;;;;;;13.36;100.00;101493.38;5023058;28;20030;-76
2023/05/09 03:33:08;;;;;;;31.48;23.38;;;;;;;13.37;100.00;101488.94;5016684;28;20363;-76
2023/05/09 03:35:33;;;;;;;31.35;21.83;;;;;;;13.39;100.00;101484.38;5022876;28;20021;-76
2023/05/09 03:37:58;;;;;;;26.95;21.67;;;;;;;13.38;100.00;101485.34;5026996;28;20025;-76
2023/05/09 03:40:24;;;;;;;30.98;23.05;;;;;;;13.36;100.00;101484.59;5026416;28;20041;-76
2023/05/09 03:42:49;;;;;;;28.00;22.33;;;;;;;13.36;100.00;101482.81;5030272;28;20049;-76
2023/05/09 03:45:15;;;;;;;28.92;22.48;;;;;;;13.35;100.00;101489.06;5029712;28;20025;-76
2023/05/09 03:47:40;;;;;;;29.77;22.48;;;;;;;13.38;100.00;101477.41;5030590;28;20490;-76
2023/05/09 03:50:06;;;;;;;29.77;22.10;;;;;;;13.37;100.00;101470.44;5029559;28;20027;-76
2023/05/09 03:52:32;;;;;;;30.35;22.85;;;;;;;13.35;100.00;101473.19;5022368;28;20033;-76
2023/05/09 03:54:57;;;;;;;26.42;21.38;;;;;;;13.34;100.00;101460.09;5025155;28;20026;-76
2023/05/09 03:57:22;;;;;;;30.20;22.20;;;;;;;13.34;100.00;101470.66;5025460;28;20501;-76
2023/05/09 03:59:48;;;;;;;28.08;22.20;;;;;;;13.35;100.00;101461.78;5023787;28;20030;-76
2023/05/09 04:02:13;;;;;;;29.77;21.98;;;;;;;13.35;100.00;101467.06;5028869;28;20060;-76
2023/05/09 04:04:39;;;;;;;30.85;21.90;;;;;;;13.34;100.00;101465.38;5028780;28;20032;-76
2023/05/09 04:07:04;;;;;;;30.77;21.25;;;;;;;13.34;100.00;101455.66;5030337;28;20025;-76
2023/05/09 04:09:34;;;;;;;25.45;21.25;;;;;;;13.36;100.00;101445.81;5027091;28;20026;-76
2023/05/09 04:12:00;;;;;;;26.48;19.83;;;;;;;13.36;100.00;101440.50;5023017;28;20029;-76
2023/05/09 04:14:25;;;;;;;28.48;20.17;;;;;;;13.37;100.00;101444.00;5028163;28;20056;-76
2023/05/09 04:16:51;;;;;;;24.25;19.70;;;;;;;13.36;100.00;101444.97;5027697;28;20110;-76
2023/05/09 04:19:16;;;;;;;24.98;19.58;;;;;;;13.34;100.00;101441.59;5028020;28;20040;-76
2023/05/09 04:21:46;;;;;;;25.40;19.08;;;;;;;13.36;100.00;101439.69;5028057;28;20486;-77
2023/05/09 04:24:11;;;;;;;23.40;18.92;;;;;;;13.33;100.00;101440.75;5027122;28;20033;-76
2023/05/09 04:26:38;;;;;;;25.60;18.98;;;;;;;13.33;100.00;101442.56;5027943;28;20447;-76
2023/05/09 04:29:04;;;;;;;24.02;18.35;;;;;;;13.36;100.00;101447.59;5023737;28;20041;-76
2023/05/09 04:31:30;;;;;;;24.92;17.73;;;;;;;13.36;100.00;101437.88;5010179;28;20072;-76
2023/05/09 04:33:57;;;;;;;23.05;17.63;;;;;;;13.37;100.00;101439.56;5012233;28;20500;-77
2023/05/09 04:36:22;;;;;;;19.88;16.60;;;;;;;13.34;100.00;101431.03;5028273;28;20395;-76
2023/05/09 04:38:48;;;;;;;19.52;16.80;;;;;;;13.37;100.00;101436.06;5027998;28;20375;-76
2023/05/09 04:41:14;;;;;;;18.95;16.48;;;;;;;13.41;100.00;101429.59;5028573;28;20505;-76
2023/05/09 04:43:40;;;;;;;18.67;16.42;;;;;;;13.42;100.00;101433.91;5030006;28;20047;-76
2023/05/09 04:46:06;;;;;;;19.38;16.55;;;;;;;13.45;100.00;101431.03;5023263;28;20029;-76
2023/05/09 04:48:33;;;;;;;19.77;16.08;;;;;;;13.49;100.00;101427.19;5029224;28;20061;-76
2023/05/09 04:50:59;;;;;;;18.90;16.27;;;;;;;13.53;100.00;101428.63;5028517;28;20049;-76
2023/05/09 04:53:25;;;;;;;20.65;15.32;;;;;;;13.57;100.00;101424.78;5026534;28;20068;-76
2023/05/09 04:55:50;;;;;;;20.02;15.77;;;;;;;13.56;100.00;101417.81;5026218;28;20075;-76
2023/05/09 04:58:16;;;;;;;18.52;15.45;;;;;;;13.62;100.00;101420.03;5028951;28;20032;-76
2023/05/09 05:00:41;;;;;;;18.73;14.98;;;;;;;13.64;100.00;101420.75;5024048;28;20025;-76
2023/05/09 05:03:06;;;;;;;18.17;15.52;;;;;;;13.63;100.00;101416.41;5022045;28;20351;-76
2023/05/09 05:05:32;;;;;;;16.38;14.63;;;;;;;13.63;100.00;101397.91;5028145;28;20474;-76
2023/05/09 05:07:57;;;;;;;18.15;14.60;;;;;;;13.65;100.00;101389.84;5036377;28;20029;-76
2023/05/09 05:10:30;;;;;;;17.85;15.23;;;;;;;13.67;100.00;101399.34;5028128;28;20060;-76
2023/05/09 05:12:55;;;;;;;17.33;14.43;;;;;;;13.69;100.00;101386.84;5028278;28;20548;-76
2023/05/09 05:15:21;;;;;;;18.15;14.85;;;;;;;13.70;100.00;101383.22;5026864;28;20025;-76
2023/05/09 05:17:47;;;;;;;16.55;14.23;;;;;;;13.76;100.00;101379.25;5023067;28;20478;-76
2023/05/09 05:20:12;;;;;;;16.13;14.40;;;;;;;13.78;100.00;101374.69;5021001;28;20108;-76
2023/05/09 05:22:39;;;;;;;17.42;14.68;;;;;;;13.74;100.00;101382.03;5024877;28;20033;-76
2023/05/09 05:25:05;;;;;;;19.83;15.75;;;;;;;13.83;100.00;101371.69;5026438;28;20108;-76
2023/05/09 05:27:31;;;;;;;17.98;15.50;;;;;;;13.87;100.00;101367.81;5050851;28;20125;-76
2023/05/09 05:29:57;;;;;;;17.00;14.52;;;;;;;13.91;100.00;101364.81;5052618;28;20096;-76
2023/05/09 05:32:22;;;;;;;19.33;15.48;;;;;;;13.97;100.00;101368.78;5034129;28;20047;-76
2023/05/09 05:34:48;;;;;;;20.67;14.95;;;;;;;14.03;100.00;101366.50;5032929;28;20032;-76
2023/05/09 05:37:13;;;;;;;17.98;14.45;;;;;;;14.07;100.00;101367.09;5023673;28;20021;-76
2023/05/09 05:39:39;;;;;;;16.83;15.02;;;;;;;14.15;100.00;101369.13;5013070;28;20630;-76
2023/05/09 05:42:05;;;;;;;17.70;14.98;;;;;;;14.28;100.00;101361.84;5025031;28;20466;-76
2023/05/09 05:44:33;;;;;;;16.83;14.93;;;;;;;14.33;100.00;101360.50;5030468;28;20056;-76
2023/05/09 05:46:58;;;;;;;16.83;14.75;;;;;;;14.38;100.00;101352.19;5032767;28;20029;-76
2023/05/09 05:49:25;;;;;;;18.98;14.50;;;;;;;14.40;100.00;101361.69;5030668;28;20032;-76
2023/05/09 05:51:51;;;;;;;17.63;14.10;;;;;;;14.46;100.00;101354.25;5029113;28;20049;-75
2023/05/09 05:54:16;;;;;;;18.90;14.30;;;;;;;14.48;100.00;101352.34;5023635;28;20025;-77
2023/05/09 05:56:42;;;;;;;18.85;14.77;;;;;;;14.49;100.00;101349.56;5032808;28;20025;-76
2023/05/09 05:59:08;;;;;;;17.48;14.75;;;;;;;14.51;100.00;101344.97;5031182;28;20025;-76
2023/05/09 06:01:34;;;;;;;17.75;15.10;;;;;;;14.59;100.00;101339.03;5030596;28;20029;-76
2023/05/09 06:04:05;;;;;;;17.45;15.13;;;;;;;14.64;100.00;101334.19;5026488;28;20112;-76
2023/05/09 06:06:31;;;;;;;37.20;16.55;;;;;;;14.68;100.00;101333.81;5025884;28;20033;-76
2023/05/09 06:08:57;;;;;;;20.17;14.25;;;;;;;14.72;100.00;101334.38;5027076;28;20030;-76
2023/05/09 06:11:22;;;;;;;44.05;17.10;;;;;;;14.70;100.00;101325.72;5029720;28;20417;-76
2023/05/09 06:13:48;;;;;;;25.95;15.10;;;;;;;14.75;100.00;101326.19;5030175;28;20385;-76
2023/05/09 06:16:14;;;;;;;16.48;14.00;;;;;;;14.80;100.00;101323.16;5030348;28;20029;-76
2023/05/09 06:18:39;;;;;;;22.70;14.88;;;;;;;14.84;100.00;101321.94;5032256;28;20104;-76
2023/05/09 06:21:06;;;;;;;16.38;14.15;;;;;;;14.81;100.00;101319.53;5032854;28;20069;-76
2023/05/09 06:23:31;;;;;;;14.80;12.95;;;;;;;14.82;100.00;101330.03;5022429;28;20030;-76
2023/05/09 06:25:57;;;;;;;17.45;13.70;;;;;;;14.87;100.00;101319.03;5030782;28;20076;-75
2023/05/09 06:28:22;;;;;;;17.50;14.05;;;;;;;14.90;100.00;101314.31;5030281;28;20036;-76
2023/05/09 06:30:52;;;;;;;17.55;13.75;;;;;;;14.87;100.00;101324.34;5028609;28;20689;-76
2023/05/09 06:33:18;;;;;;;17.10;12.95;;;;;;;14.87;100.00;101317.22;5028131;28;20026;-76
2023/05/09 06:35:43;;;;;;;16.27;13.63;;;;;;;14.87;100.00;101319.03;5031590;28;20519;-76
2023/05/09 06:38:09;;;;;;;18.52;13.55;;;;;;;14.92;100.00;101319.50;5030339;28;20030;-76
2023/05/09 06:40:36;;;;;;;29.60;14.95;;;;;;;14.97;100.00;101320.78;5026223;28;20378;-76
2023/05/09 06:43:01;;;;;;;15.23;13.48;;;;;;;15.00;100.00;101301.97;5011890;28;20099;-76
2023/05/09 06:45:30;;;;;;;17.05;13.23;;;;;;;15.04;100.00;101310.47;5010604;28;20418;-76
2023/05/09 06:47:55;;;;;;;16.83;13.27;;;;;;;15.08;100.00;101303.09;5011077;28;20486;-76
2023/05/09 06:50:21;;;;;;;17.83;13.05;;;;;;;15.09;100.00;101305.63;5018638;28;20032;-75
2023/05/09 06:52:46;;;;;;;15.13;13.02;;;;;;;15.09;100.00;101297.69;5031703;28;20135;-75
2023/05/09 06:55:11;;;;;;;15.68;13.07;;;;;;;15.10;100.00;101291.41;5030479;28;20037;-75
2023/05/09 06:57:39;;;;;;;14.48;12.38;;;;;;;15.23;100.00;101296.50;5031652;28;20022;-74
2023/05/09 07:00:05;;;;;;;14.70;12.65;;;;;;;15.24;100.00;101295.53;5025874;28;20026;-75
2023/05/09 07:02:32;;;;;;;15.07;12.65;;;;;;;15.26;100.00;101301.53;5028577;28;20087;-74
2023/05/09 07:04:58;;;;;;;14.40;12.95;;;;;;;15.24;100.00;101293.72;5029360;28;20474;-75
2023/05/09 07:07:23;;;;;;;15.60;12.13;;;;;;;15.24;100.00;101283.13;5033805;28;20080;-74
2023/05/09 07:09:48;;;;;;;14.57;12.95;;;;;;;15.24;100.00;101288.44;5031945;28;20530;-76
2023/05/09 07:12:14;;;;;;;16.88;12.30;;;;;;;15.25;100.00;101286.59;5029451;28;20493;-76
2023/05/09 07:14:40;;;;;;;14.23;11.70;;;;;;;15.26;100.00;101286.47;5030175;28;20397;-76
2023/05/09 07:17:07;;;;;;;16.40;12.10;;;;;;;15.29;100.00;101282.72;5028230;28;20026;-76
2023/05/09 07:19:32;;;;;;;12.75;11.40;;;;;;;15.22;100.00;101285.06;5024657;28;20554;-76
2023/05/09 07:21:58;;;;;;;14.65;10.95;;;;;;;15.23;100.00;101283.25;5028654;28;20104;-76
2023/05/09 07:24:23;;;;;;;13.18;10.93;;;;;;;15.21;100.00;101280.75;5027921;28;20037;-76
2023/05/09 07:26:50;;;;;;;12.82;10.52;;;;;;;15.15;100.00;101272.44;5028480;28;20382;-76
2023/05/09 07:29:17;;;;;;;14.93;11.20;;;;;;;15.11;100.00;101276.34;5032058;28;20393;-76
2023/05/09 07:31:43;;;;;;;13.60;11.43;;;;;;;15.11;100.00;101277.19;5029717;28;20561;-77
2023/05/09 07:34:08;;;;;;;11.68;10.48;;;;;;;15.01;100.00;101274.50;5029070;28;20026;-77
2023/05/09 07:36:36;;;;;;;12.02;10.45;;;;;;;14.96;100.00;101281.16;5026433;28;20163;-77
2023/05/09 07:39:01;;;;;;;11.32;10.27;;;;;;;14.90;100.00;101274.56;5027194;28;20033;-77
2023/05/09 07:41:28;;;;;;;13.60;9.88;;;;;;;14.83;100.00;101272.59;5026772;28;20041;-77
2023/05/09 07:43:54;;;;;;;12.48;10.45;;;;;;;14.83;100.00;101272.59;5023657;28;20026;-77
2023/05/09 07:46:19;;;;;;;12.13;10.88;;;;;;;14.78;100.00;101270.28;5025259;28;20163;-78
2023/05/09 07:48:45;;;;;;;12.52;11.05;;;;;;;14.80;100.00;101264.88;5029035;28;20108;-77
2023/05/09 07:51:10;;;;;;;11.98;10.77;;;;;;;14.80;100.00;101273.66;5027589;28;20104;-77
2023/05/09 07:53:37;;;;;;;12.77;11.35;;;;;;;14.80;100.00;101268.34;5029289;28;20025;-77
2023/05/09 07:56:05;;;;;;;12.50;10.38;;;;;;;14.78;100.00;101265.00;5028887;28;20029;-79
2023/05/09 07:58:31;;;;;;;11.68;10.48;;;;;;;14.84;100.00;101268.97;5028371;28;20025;-79
2023/05/09 08:00:58;;;;;;;12.23;11.00;;;;;;;14.78;100.00;101258.84;5030452;28;20029;-79
2023/05/09 08:03:23;;;;;;;13.82;11.80;;;;;;;14.89;100.00;101250.84;5028537;28;20059;-79
2023/05/09 08:05:54;;;;;;;12.23;11.02;;;;;;;14.96;100.00;101242.25;5024517;28;20116;-79
2023/05/09 08:08:19;;;;;;;12.55;11.30;;;;;;;15.03;100.00;101242.56;5029119;28;20033;-79
2023/05/09 08:10:45;;;;;;;10.70;9.60;;;;;;;15.08;100.00;101235.03;5030172;28;20132;-78
2023/05/09 08:13:10;;;;;;;12.23;10.27;;;;;;;15.18;100.00;101233.25;5019734;28;20018;-79
2023/05/09 08:15:37;;;;;;;13.93;10.18;;;;;;;15.16;100.00;101231.72;5025313;28;20025;-78
2023/05/09 08:18:03;;;;;;;10.85;9.68;;;;;;;15.15;100.00;101222.94;5028068;28;20121;-79
2023/05/09 08:20:30;;;;;;;12.95;10.15;;;;;;;15.24;100.00;101223.97;5024493;28;20533;-78
2023/05/09 08:22:56;;;;;;;11.15;9.02;;;;;;;15.23;100.00;101216.97;5028859;28;20048;-78
2023/05/09 08:25:22;;;;;;;10.30;9.10;;;;;;;15.26;100.00;101212.25;5032675;28;20021;-78
2023/05/09 08:27:47;;;;;;;9.30;8.23;;;;;;;15.24;100.00;101214.19;5023721;28;20568;-78
2023/05/09 08:30:13;;;;;;;9.00;8.10;;;;;;;15.17;100.00;101207.72;5029527;28;20029;-79
2023/05/09 08:32:40;;;;;;;9.05;8.18;;;;;;;15.20;100.00;101207.47;5020938;28;20033;-78
2023/05/09 08:35:07;;;;;;;9.23;8.32;;;;;;;15.14;100.00;101193.91;5007538;28;20113;-79
2023/05/09 08:37:33;;;;;;;9.38;8.32;;;;;;;15.16;100.00;101199.91;5010136;28;20087;-77
2023/05/09 08:40:08;;;;;;;10.00;9.00;;;;;;;15.23;100.00;101193.97;5022738;28;20363;-79
2023/05/09 08:42:36;;;;;;;10.40;9.20;;;;;;;15.23;100.00;101198.44;5024940;28;20050;-79
2023/05/09 08:45:11;;;;;;;10.00;9.00;;;;;;;15.25;100.00;101199.13;5018040;28;20040;-79
2023/05/09 08:47:40;;;;;;;11.02;9.98;;;;;;;15.28;100.00;101194.38;5028616;28;20049;-79
2023/05/09 08:50:06;;;;;;;11.10;10.07;;;;;;;15.15;100.00;101192.94;5028596;28;20052;-79
2023/05/09 08:52:33;;;;;;;9.80;8.88;;;;;;;15.14;100.00;101193.91;5029608;28;20025;-79
2023/05/09 08:55:03;;;;;;;9.90;8.90;;;;;;;15.12;100.00;101185.25;5027280;28;20521;-78
2023/05/09 08:57:30;;;;;;;10.30;9.20;;;;;;;15.15;100.00;101188.47;5028601;28;20083;-79
2023/05/09 09:00:09;;;;;;;9.98;8.88;;;;;;;15.10;100.00;101185.38;5029840;28;20075;-78
2023/05/09 09:02:36;;;;;;;9.00;8.20;;;;;;;15.13;100.00;101185.13;5028716;28;20029;-79
2023/05/09 09:05:06;;;;;;;9.63;7.30;;;;;;;15.10;100.00;101173.94;5033126;28;20021;-78
2023/05/09 09:07:33;;;;;;;11.48;8.07;;;;;;;15.09;100.00;101183.72;5039092;28;20051;-79
2023/05/09 09:10:06;;;;;;;8.93;8.02;;;;;;;14.98;100.00;101179.34;5048941;28;20474;-78
2023/05/09 09:12:33;;;;;;;8.73;7.80;;;;;;;14.98;100.00;101187.31;5032358;28;20121;-80
2023/05/09 09:15:08;;;;;;;8.38;7.35;;;;;;;14.91;100.00;101175.56;5033738;28;20509;-80
2023/05/09 09:17:40;;;;;;;8.70;7.90;;;;;;;14.91;100.00;101178.22;5030930;28;20041;-79
2023/05/09 09:20:09;;;;;;;8.73;7.90;;;;;;;14.90;100.00;101179.19;5031950;28;20025;-78
2023/05/09 09:22:39;;;;;;;9.50;7.72;;;;;;;14.84;100.00;101174.44;5032063;28;20417;-78
2023/05/09 09:25:05;;;;;;;9.77;8.00;;;;;;;14.88;100.00;101169.69;5033339;28;20025;-77
2023/05/09 09:27:31;;;;;;;9.55;7.80;;;;;;;14.93;100.00;101170.13;5031585;28;20437;-78
2023/05/09 09:30:10;;;;;;;8.60;7.75;;;;;;;14.97;100.00;101159.13;5017333;28;20022;-78
2023/05/09 09:32:36;;;;;;;8.90;7.70;;;;;;;15.07;100.00;101163.63;5015071;28;20100;-79
2023/05/09 09:35:10;;;;;;;9.52;7.78;;;;;;;15.11;100.00;101159.72;5022011;28;20036;-78
2023/05/09 09:37:38;;;;;;;9.80;7.60;;;;;;;15.20;100.00;101153.59;5024397;28;20033;-78
2023/05/09 09:40:08;;;;;;;8.18;7.05;;;;;;;15.25;100.00;101152.25;5019423;28;20076;-78
2023/05/09 09:42:47;;;;;;;8.63;7.72;;;;;;;15.35;100.00;101152.25;5022412;28;20137;-77
2023/05/09 09:45:15;;;;;;;7.13;6.43;;;;;;;15.30;100.00;101149.19;5019734;28;20101;-78
2023/05/09 09:47:45;;;;;;;10.00;7.32;;;;;;;15.36;100.00;101152.13;5019636;28;20044;-77
2023/05/09 09:50:16;;;;;;;7.70;6.90;;;;;;;15.31;100.00;101151.69;5023697;28;20028;-77
2023/05/09 09:52:56;;;;;;;8.15;7.22;;;;;;;15.33;100.00;101152.41;5019185;28;20022;-77
2023/05/09 09:55:23;;;;;;;7.80;6.70;;;;;;;15.32;100.00;101147.22;5016276;28;20386;-76
2023/05/09 09:57:49;;;;;;;7.30;6.60;;;;;;;15.39;100.00;101143.06;5028051;28;20026;-77
2023/05/09 10:00:17;;;;;;;10.50;7.55;;;;;;;15.35;100.00;101139.84;5019081;28;20026;-77
2023/05/09 10:02:55;;;;;;;8.00;7.20;;;;;;;15.38;100.00;101130.78;5027780;28;20079;-77
2023/05/09 10:05:24;;;;;;;10.25;6.90;;;;;;;15.39;100.00;101127.16;5026324;28;20507;-77
2023/05/09 10:07:57;;;;;;;8.55;7.45;;;;;;;15.28;100.00;101130.75;5030249;28;20033;-77
2023/05/09 10:10:27;;;;;;;7.82;7.03;;;;;;;15.34;100.00;101129.38;5029357;28;20033;-77
2023/05/09 10:12:58;;;;;;;8.38;7.13;;;;;;;15.37;100.00;101121.13;5029871;28;20032;-78
2023/05/09 10:15:25;;;;;;;8.38;6.82;;;;;;;15.31;100.00;101124.34;5027712;28;20493;-77
2023/05/09 10:17:54;;;;;;;7.22;6.55;;;;;;;15.32;100.00;101126.84;5031759;28;20071;-77
2023/05/09 10:20:20;;;;;;;8.48;6.80;;;;;;;15.25;100.00;101122.25;5030580;28;20094;-77
2023/05/09 10:22:48;;;;;;;8.10;6.32;;;;;;;15.20;100.00;101117.31;5028810;28;20478;-78
2023/05/09 10:25:18;;;;;;;8.10;6.28;;;;;;;15.17;100.00;101122.06;5029315;28;20056;-77
2023/05/09 10:27:45;;;;;;;10.07;6.90;;;;;;;15.23;100.00;101121.53;5029632;28;20028;-78
2023/05/09 10:30:18;;;;;;;8.38;7.03;;;;;;;15.14;100.00;101111.75;5030568;28;20031;-77
2023/05/09 10:32:54;;;;;;;8.23;6.70;;;;;;;15.00;100.00;101118.28;5031096;28;20085;-77
2023/05/09 10:35:27;;;;;;;7.43;6.50;;;;;;;15.04;100.00;101106.41;5031275;28;20037;-77
2023/05/09 10:37:58;;;;;;;7.40;6.70;;;;;;;15.00;100.00;101105.84;5030299;28;20030;-77
2023/05/09 10:40:24;;;;;;;7.47;6.78;;;;;;;15.04;100.00;101104.63;5027827;28;20021;-77
2023/05/09 10:42:50;;;;;;;9.30;7.35;;;;;;;14.99;100.00;101106.84;5030890;28;20064;-77
2023/05/09 10:45:20;;;;;;;8.38;7.18;;;;;;;15.00;100.00;101089.97;5031115;28;20419;-77
2023/05/09 10:47:49;;;;;;;8.00;7.20;;;;;;;14.98;100.00;101097.22;5024306;28;20066;-77
2023/05/09 10:50:16;;;;;;;7.78;7.07;;;;;;;14.90;100.00;101094.41;5017674;28;20640;-77
2023/05/09 10:53:03;;;;;;;7.75;6.97;;;;;;;14.96;100.00;101091.22;5027356;28;20068;-77
2023/05/09 10:56:00;;;;;;;8.60;7.75;;;;;;;15.00;100.00;101094.41;5030726;28;20113;-78
2023/05/09 10:58:32;;;;;;;12.55;8.23;;;;;;;14.88;100.00;101096.34;5031400;28;20017;-77
2023/05/09 11:01:00;;;;;;;7.82;7.00;;;;;;;14.79;100.00;101091.84;5028969;28;20032;-78
2023/05/09 11:03:28;;;;;;;9.02;7.57;;;;;;;14.74;100.00;101083.47;5029901;28;20021;-78
2023/05/09 11:05:55;;;;;;;8.07;7.30;;;;;;;14.70;100.00;101079.41;5029762;28;20053;-78